createdAt,value
2022-09-28T00:00:29.835Z,24.55
2022-09-28T00:01:31.934Z,24.70
2022-09-28T00:02:35.467Z,24.85
2022-09-28T00:03:37.364Z,24.67
2022-09-28T00:04:39.180Z,24.94
2022-09-28T00:05:40.984Z,25.12
2022-09-28T00:06:42.828Z,24.49
2022-09-28T00:07:44.933Z,24.53
2022-09-28T00:08:46.702Z,24.74
2022-09-28T00:09:48.428Z,25.14
2022-09-28T00:10:55.988Z,24.52
2022-09-28T00:11:57.839Z,24.32
2022-09-28T00:13:01.454Z,24.97
2022-09-28T00:14:04.011Z,24.97
2022-09-28T00:15:06.065Z,24.85
2022-09-28T00:16:11.458Z,25.31
2022-09-28T00:17:13.959Z,25.00
2022-09-28T00:18:15.678Z,24.94
2022-09-28T00:19:17.779Z,25.13
2022-09-28T00:20:19.848Z,24.97
2022-09-28T00:21:24.442Z,25.30
2022-09-28T00:22:26.189Z,24.84
2022-09-28T00:23:27.954Z,24.71
2022-09-28T00:24:30.769Z,24.47
2022-09-28T00:25:33.117Z,24.89
2022-09-28T00:26:34.901Z,24.96
2022-09-28T00:27:36.640Z,25.02
2022-09-28T00:28:38.341Z,24.86
2022-09-28T00:29:40.076Z,25.09
2022-09-28T00:30:41.775Z,24.98
2022-09-28T00:31:43.559Z,25.28
2022-09-28T00:32:45.355Z,24.97
2022-09-28T00:33:55.379Z,25.27
2022-09-28T00:34:57.236Z,24.58
2022-09-28T00:35:59.456Z,24.28
2022-09-28T00:37:02.519Z,25.28
2022-09-28T00:38:04.295Z,25.10
2022-09-28T00:39:08.247Z,25.27
2022-09-28T00:40:10.148Z,24.80
2022-09-28T00:41:12.045Z,25.03
2022-09-28T00:42:25.104Z,24.31
2022-09-28T00:43:27.062Z,24.81
2022-09-28T00:44:46.412Z,25.30
2022-09-28T00:46:04.543Z,25.12
2022-09-28T00:47:20.022Z,25.18
2022-09-28T00:48:21.805Z,25.35
2022-09-28T00:49:35.089Z,25.14
2022-09-28T00:50:37.705Z,25.00
2022-09-28T00:51:42.669Z,25.28
2022-09-28T00:53:01.410Z,25.02
2022-09-28T00:54:06.358Z,25.30
2022-09-28T00:55:13.267Z,25.30
2022-09-28T00:56:21.574Z,25.13
2022-09-28T00:57:24.111Z,25.05
2022-09-28T00:58:32.238Z,24.41
2022-09-28T00:59:34.350Z,25.03
2022-09-28T01:00:36.267Z,24.87
2022-09-28T01:01:38.099Z,24.42
2022-09-28T01:02:41.693Z,24.86
2022-09-28T01:03:48.725Z,25.23
2022-09-28T01:04:52.247Z,25.23
2022-09-28T01:05:57.824Z,25.22
2022-09-28T01:07:00.380Z,24.30
2022-09-28T01:08:03.374Z,24.27
2022-09-28T01:09:08.696Z,25.18
2022-09-28T01:10:11.157Z,24.41
2022-09-28T01:11:12.903Z,24.88
2022-09-28T01:12:14.713Z,24.98
2022-09-28T01:13:19.468Z,24.55
2022-09-28T01:14:24.950Z,24.92
2022-09-28T01:15:29.269Z,24.38
2022-09-28T01:16:46.229Z,24.80
2022-09-28T01:18:10.145Z,25.04
2022-09-28T01:19:29.751Z,25.28
2022-09-28T01:20:59.800Z,25.21
2022-09-28T01:22:35.405Z,25.36
2022-09-28T01:23:55.784Z,25.33
2022-09-28T01:25:00.301Z,25.29
2022-09-28T01:26:34.301Z,25.30
2022-09-28T01:27:51.597Z,25.17
2022-09-28T01:29:00.476Z,25.13
2022-09-28T01:30:11.989Z,25.26
2022-09-28T01:31:16.508Z,25.23
2022-09-28T01:32:33.133Z,25.25
2022-09-28T01:33:46.766Z,24.84
2022-09-28T01:35:15.537Z,24.35
2022-09-28T01:36:27.216Z,25.02
2022-09-28T01:37:55.879Z,25.06
2022-09-28T01:39:05.928Z,24.85
2022-09-28T01:40:10.402Z,24.99
2022-09-28T01:41:13.647Z,25.10
2022-09-28T01:42:30.102Z,24.94
2022-09-28T01:43:35.929Z,24.96
2022-09-28T01:44:44.564Z,25.18
2022-09-28T01:46:05.008Z,25.21
2022-09-28T01:47:12.596Z,24.77
2022-09-28T01:48:26.445Z,24.97
2022-09-28T01:49:34.839Z,24.92
2022-09-28T01:50:42.492Z,25.13
2022-09-28T01:51:51.760Z,24.83
2022-09-28T01:53:43.140Z,25.27
2022-09-28T01:54:59.179Z,25.10
2022-09-28T01:56:11.638Z,25.25
2022-09-28T01:57:38.508Z,25.23
2022-09-28T01:58:45.816Z,25.04
2022-09-28T02:00:03.052Z,25.12
2022-09-28T02:01:21.853Z,24.98
2022-09-28T02:02:29.669Z,24.95
2022-09-28T02:03:57.442Z,25.03
2022-09-28T02:05:13.473Z,25.13
2022-09-28T02:06:23.205Z,24.39
2022-09-28T02:07:38.230Z,24.35
2022-09-28T02:08:46.848Z,24.86
2022-09-28T02:10:03.296Z,24.93
2022-09-28T02:11:19.575Z,25.03
2022-09-28T02:12:33.655Z,25.17
2022-09-28T02:13:43.384Z,25.18
2022-09-28T02:14:49.196Z,25.16
2022-09-28T02:15:56.218Z,24.93
2022-09-28T02:16:59.106Z,24.87
2022-09-28T02:18:05.084Z,24.88
2022-09-28T02:19:12.870Z,24.10
2022-09-28T02:20:16.030Z,24.96
2022-09-28T02:21:20.796Z,24.88
2022-09-28T02:22:34.163Z,24.80
2022-09-28T02:23:39.825Z,24.34
2022-09-28T02:25:13.886Z,25.00
2022-09-28T02:26:22.966Z,25.16
2022-09-28T02:27:40.068Z,25.16
2022-09-28T02:28:41.960Z,24.67
2022-09-28T02:29:43.767Z,24.42
2022-09-28T02:30:46.164Z,25.00
2022-09-28T02:31:51.055Z,24.70
2022-09-28T02:32:59.141Z,25.10
2022-09-28T02:34:01.113Z,24.89
2022-09-28T02:35:03.033Z,24.59
2022-09-28T02:36:05.764Z,25.08
2022-09-28T02:37:12.639Z,25.10
2022-09-28T02:38:15.262Z,24.34
2022-09-28T02:39:19.162Z,25.09
2022-09-28T02:40:29.136Z,23.98
2022-09-28T02:41:46.217Z,24.89
2022-09-28T02:43:02.217Z,25.13
2022-09-28T02:44:39.476Z,25.09
2022-09-28T02:46:06.330Z,25.25
2022-09-28T02:47:41.009Z,24.67
2022-09-28T02:49:17.321Z,25.25
2022-09-28T02:50:21.131Z,25.24
2022-09-28T02:51:30.561Z,24.82
2022-09-28T02:52:32.634Z,25.16
2022-09-28T02:53:46.813Z,25.14
2022-09-28T02:55:10.174Z,25.13
2022-09-28T02:56:54.972Z,25.08
2022-09-28T02:58:18.987Z,25.21
2022-09-28T02:59:29.856Z,25.19
2022-09-28T03:00:42.226Z,24.95
2022-09-28T03:02:11.848Z,25.19
2022-09-28T03:03:35.474Z,25.15
2022-09-28T03:04:52.541Z,24.96
2022-09-28T03:06:23.694Z,24.76
2022-09-28T03:07:34.102Z,25.17
2022-09-28T03:08:53.393Z,24.94
2022-09-28T03:10:07.593Z,24.95
2022-09-28T03:11:22.420Z,24.92
2022-09-28T03:12:29.392Z,24.55
2022-09-28T03:13:32.695Z,25.08
2022-09-28T03:14:34.486Z,24.80
2022-09-28T03:15:37.303Z,24.85
2022-09-28T03:16:44.370Z,24.16
2022-09-28T03:17:46.489Z,24.70
2022-09-28T03:18:48.949Z,24.73
2022-09-28T03:19:51.203Z,24.97
2022-09-28T03:20:52.949Z,24.74
2022-09-28T03:21:55.728Z,24.69
2022-09-28T03:23:22.903Z,25.02
2022-09-28T03:24:19.629Z,24.88
2022-09-28T03:25:21.405Z,24.90
2022-09-28T03:26:23.139Z,24.81
2022-09-28T03:27:24.894Z,24.84
2022-09-28T03:28:27.253Z,24.88
2022-09-28T03:29:31.661Z,24.32
2022-09-28T03:30:37.084Z,24.67
2022-09-28T03:31:39.057Z,24.25
2022-09-28T03:32:41.550Z,24.84
2022-09-28T03:33:44.461Z,24.84
2022-09-28T03:34:46.347Z,24.23
2022-09-28T03:35:50.467Z,25.02
2022-09-28T03:36:52.962Z,24.78
2022-09-28T03:37:56.510Z,24.17
2022-09-28T03:39:00.359Z,24.60
2022-09-28T03:40:03.420Z,24.73
2022-09-28T03:41:05.386Z,24.88
2022-09-28T03:42:11.875Z,24.83
2022-09-28T03:43:18.724Z,24.34
2022-09-28T03:44:20.820Z,24.79
2022-09-28T03:45:23.475Z,24.81
2022-09-28T03:46:26.490Z,25.03
2022-09-28T03:47:31.708Z,24.93
2022-09-28T03:48:35.274Z,24.58
2022-09-28T03:49:37.293Z,24.93
2022-09-28T03:50:39.043Z,24.70
2022-09-28T03:51:40.888Z,24.85
2022-09-28T03:52:43.843Z,24.01
2022-09-28T03:53:45.681Z,24.15
2022-09-28T03:54:49.320Z,24.77
2022-09-28T03:55:53.412Z,25.03
2022-09-28T03:56:55.278Z,24.79
2022-09-28T03:57:57.257Z,24.57
2022-09-28T03:58:59.031Z,24.15
2022-09-28T04:00:02.088Z,24.58
2022-09-28T04:01:07.167Z,24.73
2022-09-28T04:02:09.178Z,24.93
2022-09-28T04:03:10.940Z,24.87
2022-09-28T04:04:13.574Z,24.92
2022-09-28T04:05:15.338Z,24.85
2022-09-28T04:06:17.156Z,24.88
2022-09-28T04:07:18.892Z,24.62
2022-09-28T04:08:21.465Z,24.81
2022-09-28T04:09:23.830Z,24.87
2022-09-28T04:10:26.303Z,25.02
2022-09-28T04:11:38.518Z,24.77
2022-09-28T04:12:54.935Z,24.82
2022-09-28T04:13:56.948Z,24.85
2022-09-28T04:14:58.783Z,24.74
2022-09-28T04:16:01.729Z,24.73
2022-09-28T04:17:07.339Z,24.93
2022-09-28T04:18:13.776Z,24.23
2022-09-28T04:19:31.025Z,24.88
2022-09-28T04:21:07.630Z,25.10
2022-09-28T04:22:14.396Z,24.98
2022-09-28T04:23:16.169Z,24.71
2022-09-28T04:24:20.379Z,24.87
2022-09-28T04:25:22.502Z,24.62
2022-09-28T04:26:26.411Z,25.03
2022-09-28T04:27:46.554Z,24.78
2022-09-28T04:29:07.142Z,24.87
2022-09-28T04:30:10.819Z,24.99
2022-09-28T04:31:17.129Z,24.87
2022-09-28T04:32:19.078Z,25.00
2022-09-28T04:33:20.789Z,25.04
2022-09-28T04:34:23.343Z,25.01
2022-09-28T04:35:25.316Z,24.77
2022-09-28T04:36:27.116Z,24.78
2022-09-28T04:37:31.299Z,24.81
2022-09-28T04:38:51.712Z,24.32
2022-09-28T04:39:54.362Z,24.87
2022-09-28T04:40:56.128Z,25.03
2022-09-28T04:41:57.980Z,24.44
2022-09-28T04:42:59.787Z,24.85
2022-09-28T04:44:01.973Z,24.15
2022-09-28T04:45:04.929Z,24.81
2022-09-28T04:46:10.717Z,24.87
2022-09-28T04:47:18.904Z,24.84
2022-09-28T04:48:40.843Z,24.70
2022-09-28T04:49:59.798Z,24.90
2022-09-28T04:51:06.784Z,24.53
2022-09-28T04:52:08.863Z,24.39
2022-09-28T04:53:10.660Z,24.78
2022-09-28T04:54:12.477Z,24.82
2022-09-28T04:55:14.635Z,24.74
2022-09-28T04:56:18.089Z,24.98
2022-09-28T04:57:19.811Z,24.90
2022-09-28T04:58:21.580Z,24.61
2022-09-28T04:59:23.429Z,24.60
2022-09-28T05:00:25.285Z,24.84
2022-09-28T05:01:41.377Z,24.94
2022-09-28T05:03:01.883Z,24.65
2022-09-28T05:04:26.126Z,24.72
2022-09-28T05:05:48.063Z,24.99
2022-09-28T05:07:09.360Z,25.02
2022-09-28T05:08:12.372Z,24.68
2022-09-28T05:09:15.296Z,24.84
2022-09-28T05:10:18.815Z,24.58
2022-09-28T05:11:21.703Z,24.85
2022-09-28T05:12:24.319Z,25.01
2022-09-28T05:13:26.657Z,24.85
2022-09-28T05:14:28.403Z,24.91
2022-09-28T05:15:31.086Z,24.59
2022-09-28T05:16:34.178Z,24.87
2022-09-28T05:18:11.430Z,24.86
2022-09-28T05:19:30.277Z,25.06
2022-09-28T05:20:41.497Z,24.96
2022-09-28T05:21:45.511Z,25.26
2022-09-28T05:22:47.285Z,25.28
2022-09-28T05:23:49.033Z,24.53
2022-09-28T05:24:50.891Z,25.17
2022-09-28T05:25:53.369Z,24.63
2022-09-28T05:27:05.394Z,25.30
2022-09-28T05:28:08.125Z,24.50
2022-09-28T05:29:28.984Z,25.25
2022-09-28T05:31:11.852Z,25.58
2022-09-28T05:32:33.882Z,25.37
2022-09-28T05:33:46.183Z,25.49
2022-09-28T05:34:48.859Z,24.92
2022-09-28T05:36:01.059Z,25.49
2022-09-28T05:37:03.906Z,25.58
2022-09-28T05:38:05.981Z,25.63
2022-09-28T05:39:09.332Z,25.41
2022-09-28T05:40:11.830Z,25.77
2022-09-28T05:41:14.223Z,25.55
2022-09-28T05:42:16.020Z,25.44
2022-09-28T05:43:18.279Z,25.74
2022-09-28T05:44:20.026Z,25.24
2022-09-28T05:45:22.890Z,25.88
2022-09-28T05:46:25.383Z,25.69
2022-09-28T05:47:27.695Z,25.70
2022-09-28T05:48:30.188Z,25.68
2022-09-28T05:49:31.996Z,25.55
2022-09-28T05:50:35.951Z,25.73
2022-09-28T05:51:38.322Z,25.59
2022-09-28T05:52:40.760Z,25.19
2022-09-28T05:53:43.249Z,25.85
2022-09-28T05:54:45.567Z,26.05
2022-09-28T05:55:47.929Z,25.38
2022-09-28T05:56:49.735Z,25.81
2022-09-28T05:57:51.835Z,25.90
2022-09-28T05:58:53.898Z,25.66
2022-09-28T05:59:57.878Z,25.39
2022-09-28T06:00:59.751Z,25.85
2022-09-28T06:02:02.481Z,26.14
2022-09-28T06:03:09.307Z,25.94
2022-09-28T06:04:11.698Z,25.95
2022-09-28T06:05:13.777Z,26.17
2022-09-28T06:06:15.636Z,25.71
2022-09-28T06:07:19.065Z,26.04
2022-09-28T06:08:21.274Z,25.95
2022-09-28T06:09:31.325Z,25.56
2022-09-28T06:10:53.557Z,26.01
2022-09-28T06:11:55.495Z,26.09
2022-09-28T06:13:08.680Z,26.27
2022-09-28T06:14:11.058Z,26.03
2022-09-28T06:15:13.307Z,26.13
2022-09-28T06:16:16.845Z,25.73
2022-09-28T06:17:18.835Z,26.04
2022-09-28T06:18:26.854Z,26.14
2022-09-28T06:19:47.455Z,25.97
2022-09-28T06:21:01.132Z,26.17
2022-09-28T06:22:09.130Z,26.16
2022-09-28T06:23:19.921Z,25.89
2022-09-28T06:24:21.666Z,26.19
2022-09-28T06:25:24.524Z,26.34
2022-09-28T06:26:26.224Z,25.72
2022-09-28T06:27:28.544Z,25.59
2022-09-28T06:28:30.522Z,26.07
2022-09-28T06:29:32.488Z,26.18
2022-09-28T06:30:38.252Z,25.48
2022-09-28T06:31:42.370Z,25.86
2022-09-28T06:32:44.507Z,25.83
2022-09-28T06:33:48.058Z,26.10
2022-09-28T06:34:55.425Z,26.15
2022-09-28T06:36:00.226Z,26.14
2022-09-28T06:37:04.725Z,25.87
2022-09-28T06:38:07.966Z,25.60
2022-09-28T06:39:09.726Z,26.17
2022-09-28T06:40:12.050Z,25.69
2022-09-28T06:41:14.769Z,26.03
2022-09-28T06:42:18.737Z,26.19
2022-09-28T06:43:48.196Z,26.40
2022-09-28T06:45:09.415Z,25.99
2022-09-28T06:46:40.266Z,26.32
2022-09-28T06:47:59.544Z,26.26
2022-09-28T06:49:15.102Z,26.40
2022-09-28T06:50:42.304Z,26.18
2022-09-28T06:52:22.362Z,26.49
2022-09-28T06:53:47.204Z,26.33
2022-09-28T06:55:11.854Z,26.34
2022-09-28T06:56:18.090Z,26.42
2022-09-28T06:57:19.990Z,26.38
2022-09-28T06:58:23.369Z,26.08
2022-09-28T06:59:25.553Z,25.65
2022-09-28T07:00:29.280Z,25.51
2022-09-28T07:01:31.145Z,26.09
2022-09-28T07:02:53.328Z,26.32
2022-09-28T07:04:19.613Z,26.22
2022-09-28T07:05:51.335Z,26.08
2022-09-28T07:07:11.601Z,26.13
2022-09-28T07:08:32.854Z,26.25
2022-09-28T07:10:00.428Z,26.31
2022-09-28T07:11:39.708Z,26.05
2022-09-28T07:13:12.782Z,26.20
2022-09-28T07:14:40.037Z,25.88
2022-09-28T07:15:47.835Z,25.66
2022-09-28T07:17:11.698Z,26.08
2022-09-28T07:18:13.149Z,26.09
2022-09-28T07:19:17.452Z,26.14
2022-09-28T07:20:20.256Z,25.70
2022-09-28T07:21:29.796Z,25.98
2022-09-28T07:22:43.105Z,25.63
2022-09-28T07:23:53.715Z,26.11
2022-09-28T07:24:58.650Z,26.24
2022-09-28T07:26:24.550Z,26.01
2022-09-28T07:28:02.588Z,26.44
2022-09-28T07:29:19.007Z,26.28
2022-09-28T07:30:35.798Z,26.42
2022-09-28T07:31:41.939Z,26.08
2022-09-28T07:33:03.708Z,26.31
2022-09-28T07:34:43.962Z,26.25
2022-09-28T07:36:06.578Z,26.27
2022-09-28T07:37:11.848Z,25.99
2022-09-28T07:38:13.646Z,26.20
2022-09-28T07:39:15.349Z,26.07
2022-09-28T07:40:36.037Z,25.95
2022-09-28T07:41:41.506Z,26.09
2022-09-28T07:42:43.520Z,25.55
2022-09-28T07:43:46.981Z,25.38
2022-09-28T07:44:48.878Z,26.00
2022-09-28T07:45:52.791Z,26.05
2022-09-28T07:46:54.997Z,26.13
2022-09-28T07:49:39.322Z,26.27
2022-09-28T07:51:04.885Z,26.44
2022-09-28T07:52:35.233Z,26.06
2022-09-28T07:53:50.185Z,26.44
2022-09-28T07:55:12.868Z,26.35
2022-09-28T07:56:37.744Z,26.31
2022-09-28T07:58:01.682Z,26.42
2022-09-28T07:59:26.474Z,25.71
2022-09-28T08:00:48.407Z,26.18
2022-09-28T08:01:51.271Z,26.28
2022-09-28T08:02:53.027Z,26.22
2022-09-28T08:03:59.245Z,26.27
2022-09-28T08:05:02.529Z,26.21
2022-09-28T08:06:07.319Z,26.10
2022-09-28T08:07:10.943Z,25.74
2022-09-28T08:08:13.473Z,26.34
2022-09-28T08:09:15.328Z,25.98
2022-09-28T08:10:37.889Z,26.14
2022-09-28T08:12:14.905Z,26.37
2022-09-28T08:13:23.468Z,26.23
2022-09-28T08:14:48.068Z,26.12
2022-09-28T08:16:17.966Z,26.16
2022-09-28T08:17:28.332Z,25.67
2022-09-28T08:18:33.268Z,26.14
2022-09-28T08:19:53.804Z,25.65
2022-09-28T08:21:14.057Z,26.25
2022-09-28T08:22:20.562Z,25.68
2022-09-28T08:23:25.092Z,26.23
2022-09-28T08:24:31.090Z,26.04
2022-09-28T08:25:34.189Z,26.16
2022-09-28T08:26:38.126Z,26.00
2022-09-28T08:27:39.891Z,26.08
2022-09-28T08:28:43.285Z,26.14
2022-09-28T08:30:05.504Z,26.19
2022-09-28T08:31:31.248Z,26.12
2022-09-28T08:32:51.036Z,26.27
2022-09-28T08:34:01.901Z,26.18
2022-09-28T08:35:22.459Z,26.17
2022-09-28T08:36:44.434Z,26.23
2022-09-28T08:38:04.851Z,26.18
2022-09-28T08:39:38.387Z,26.05
2022-09-28T08:41:34.956Z,26.47
2022-09-28T08:42:45.996Z,26.28
2022-09-28T08:44:09.808Z,26.44
2022-09-28T08:45:44.142Z,26.14
2022-09-28T08:47:29.691Z,26.00
2022-09-28T08:49:20.691Z,26.29
2022-09-28T08:51:09.872Z,26.38
2022-09-28T08:52:28.434Z,26.36
2022-09-28T08:54:08.154Z,26.50
2022-09-28T08:55:37.326Z,25.90
2022-09-28T08:56:50.597Z,26.45
2022-09-28T08:58:09.355Z,26.42
2022-09-28T08:59:16.385Z,26.05
2022-09-28T09:00:28.067Z,26.39
2022-09-28T09:01:40.633Z,26.39
2022-09-28T09:02:47.952Z,26.26
2022-09-28T09:03:52.729Z,26.24
2022-09-28T09:05:14.985Z,26.33
2022-09-28T09:07:08.588Z,26.42
2022-09-28T09:08:33.038Z,26.47
2022-09-28T09:09:35.275Z,26.44
2022-09-28T09:11:09.579Z,26.36
2022-09-28T09:12:35.940Z,26.47
2022-09-28T09:13:50.064Z,26.45
2022-09-28T09:14:58.921Z,26.44
2022-09-28T09:16:25.699Z,26.42
2022-09-28T09:18:19.997Z,26.28
2022-09-28T09:19:48.907Z,26.50
2022-09-28T09:20:59.303Z,26.45
2022-09-28T09:22:38.803Z,26.31
2022-09-28T09:23:55.508Z,26.17
2022-09-28T09:25:19.726Z,26.33
2022-09-28T09:26:35.100Z,26.13
2022-09-28T09:27:43.593Z,26.44
2022-09-28T09:28:45.312Z,26.43
2022-09-28T09:30:03.494Z,26.40
2022-09-28T09:31:25.224Z,26.42
2022-09-28T09:32:34.360Z,26.22
2022-09-28T09:33:54.596Z,26.44
2022-09-28T09:35:22.735Z,26.48
2022-09-28T09:37:20.648Z,26.35
2022-09-28T09:39:09.111Z,26.56
2022-09-28T09:41:01.292Z,26.40
2022-09-28T09:42:40.379Z,26.55
2022-09-28T09:44:14.799Z,26.49
2022-09-28T09:45:50.111Z,26.37
2022-09-28T09:47:19.938Z,26.32
2022-09-28T09:49:04.359Z,26.55
2022-09-28T09:50:17.968Z,26.51
2022-09-28T09:51:28.038Z,26.47
2022-09-28T09:52:46.726Z,26.19
2022-09-28T09:54:00.114Z,26.24
2022-09-28T09:55:11.012Z,26.46
2022-09-28T09:57:13.349Z,26.55
2022-09-28T09:58:47.870Z,26.07
2022-09-28T10:00:11.090Z,26.54
2022-09-28T10:01:19.526Z,25.95
2022-09-28T10:02:53.370Z,26.22
2022-09-28T10:04:40.479Z,26.54
2022-09-28T10:06:01.465Z,26.36
2022-09-28T10:07:05.871Z,26.11
2022-09-28T10:08:09.432Z,26.47
2022-09-28T10:09:28.192Z,26.05
2022-09-28T10:10:44.613Z,26.00
2022-09-28T10:11:51.993Z,26.35
2022-09-28T10:12:54.419Z,25.63
2022-09-28T10:13:57.851Z,26.28
2022-09-28T10:15:27.994Z,26.24
2022-09-28T10:16:51.215Z,26.34
2022-09-28T10:18:16.174Z,26.28
2022-09-28T10:19:37.896Z,26.21
2022-09-28T10:20:58.269Z,26.15
2022-09-28T10:22:22.696Z,26.48
2022-09-28T10:23:31.541Z,26.45
2022-09-28T10:24:38.774Z,26.44
2022-09-28T10:25:44.026Z,26.00
2022-09-28T10:26:50.972Z,26.40
2022-09-28T10:27:52.821Z,26.33
2022-09-28T10:29:02.081Z,26.11
2022-09-28T10:30:10.198Z,26.41
2022-09-28T10:31:34.462Z,26.46
2022-09-28T10:32:41.438Z,26.46
2022-09-28T10:33:43.275Z,26.33
2022-09-28T10:34:50.174Z,26.23
2022-09-28T10:35:54.873Z,26.17
2022-09-28T10:36:58.383Z,26.43
2022-09-28T10:38:04.760Z,26.44
2022-09-28T10:39:30.154Z,26.47
2022-09-28T10:40:40.539Z,26.48
2022-09-28T10:41:49.897Z,26.18
2022-09-28T10:43:07.907Z,26.48
2022-09-28T10:44:18.816Z,26.49
2022-09-28T10:45:44.973Z,26.53
2022-09-28T10:46:57.058Z,26.10
2022-09-28T10:48:00.915Z,26.29
2022-09-28T10:49:02.631Z,26.46
2022-09-28T10:50:21.287Z,26.11
2022-09-28T10:51:43.752Z,26.51
2022-09-28T10:52:50.550Z,26.32
2022-09-28T10:54:19.406Z,26.51
2022-09-28T10:55:33.332Z,26.50
2022-09-28T10:56:37.794Z,26.47
2022-09-28T10:57:46.071Z,26.27
2022-09-28T10:58:48.190Z,26.44
2022-09-28T10:59:57.776Z,26.22
2022-09-28T11:01:29.426Z,26.38
2022-09-28T11:02:36.326Z,26.39
2022-09-28T11:03:56.442Z,26.09
2022-09-28T11:05:01.487Z,26.09
2022-09-28T11:06:08.825Z,26.39
2022-09-28T11:07:21.210Z,26.47
2022-09-28T11:08:28.855Z,26.26
2022-09-28T11:09:36.978Z,25.63
2022-09-28T11:10:42.054Z,26.46
2022-09-28T11:11:48.237Z,26.34
2022-09-28T11:12:51.372Z,26.25
2022-09-28T11:13:57.964Z,26.43
2022-09-28T11:15:06.524Z,26.45
2022-09-28T11:16:17.913Z,26.25
2022-09-28T11:17:31.330Z,26.47
2022-09-28T11:18:34.480Z,26.24
2022-09-28T11:19:41.771Z,25.88
2022-09-28T11:20:45.395Z,26.14
2022-09-28T11:21:47.326Z,25.69
2022-09-28T11:22:54.634Z,26.43
2022-09-28T11:24:27.910Z,26.48
2022-09-28T11:25:33.343Z,26.27
2022-09-28T11:26:39.511Z,26.07
2022-09-28T11:27:42.445Z,25.75
2022-09-28T11:28:51.633Z,26.26
2022-09-28T11:30:00.949Z,26.13
2022-09-28T11:31:09.585Z,26.18
2022-09-28T11:32:40.121Z,26.11
2022-09-28T11:34:16.784Z,26.37
2022-09-28T11:36:02.734Z,26.57
2022-09-28T11:37:16.440Z,26.57
2022-09-28T11:39:05.320Z,26.58
2022-09-28T11:40:29.348Z,26.62
2022-09-28T11:41:31.327Z,26.57
2022-09-28T11:43:16.873Z,26.55
2022-09-28T11:44:34.922Z,26.55
2022-09-28T11:45:59.453Z,26.07
2022-09-28T11:47:27.310Z,26.40
2022-09-28T11:48:41.483Z,26.30
2022-09-28T11:49:47.062Z,26.09
2022-09-28T11:50:54.771Z,26.48
2022-09-28T11:52:02.592Z,26.32
2022-09-28T11:53:15.032Z,26.08
2022-09-28T11:54:38.712Z,26.29
2022-09-28T11:55:52.492Z,26.35
2022-09-28T11:56:56.086Z,26.11
2022-09-28T11:58:07.325Z,26.48
2022-09-28T11:59:15.316Z,26.47
2022-09-28T12:00:22.705Z,25.98
2022-09-28T12:01:57.384Z,26.52
2022-09-28T12:03:29.417Z,26.49
2022-09-28T12:04:38.596Z,26.50
2022-09-28T12:06:01.119Z,26.36
2022-09-28T12:07:17.912Z,26.21
2022-09-28T12:08:29.134Z,26.46
2022-09-28T12:10:00.035Z,26.34
2022-09-28T12:11:15.931Z,26.31
2022-09-28T12:12:54.701Z,26.42
2022-09-28T12:14:00.683Z,26.35
2022-09-28T12:15:15.985Z,26.27
2022-09-28T12:16:45.224Z,26.51
2022-09-28T12:17:45.299Z,26.12
2022-09-28T12:19:07.012Z,25.74
2022-09-28T12:20:27.422Z,26.55
2022-09-28T12:21:32.228Z,26.53
2022-09-28T12:22:42.932Z,26.08
2022-09-28T12:23:45.725Z,25.53
2022-09-28T12:24:51.183Z,26.47
2022-09-28T12:25:59.574Z,26.24
2022-09-28T12:27:10.238Z,26.48
2022-09-28T12:28:38.349Z,26.51
2022-09-28T12:29:49.829Z,26.33
2022-09-28T12:30:53.750Z,26.40
2022-09-28T12:32:09.878Z,26.50
2022-09-28T12:33:15.363Z,26.41
2022-09-28T12:34:17.273Z,26.28
2022-09-28T12:35:44.962Z,25.68
2022-09-28T12:36:47.563Z,26.53
2022-09-28T12:38:02.301Z,26.49
2022-09-28T12:39:46.821Z,26.38
2022-09-28T12:41:12.482Z,26.51
2022-09-28T12:42:42.418Z,26.58
2022-09-28T12:43:56.135Z,26.60
2022-09-28T12:45:20.820Z,26.57
2022-09-28T12:46:34.980Z,26.58
2022-09-28T12:47:36.930Z,26.56
2022-09-28T12:49:27.264Z,26.54
2022-09-28T12:50:38.998Z,26.45
2022-09-28T12:52:00.386Z,26.59
2022-09-28T12:53:10.792Z,26.33
2022-09-28T12:54:42.511Z,26.55
2022-09-28T12:55:57.993Z,26.59
2022-09-28T12:57:02.667Z,26.58
2022-09-28T12:58:20.993Z,26.33
2022-09-28T12:59:32.464Z,26.15
2022-09-28T13:01:13.937Z,26.59
2022-09-28T13:03:07.967Z,26.66
2022-09-28T13:04:17.296Z,26.44
2022-09-28T13:05:37.371Z,26.64
2022-09-28T13:06:55.745Z,26.60
2022-09-28T13:08:28.320Z,26.61
2022-09-28T13:09:53.120Z,26.42
2022-09-28T13:11:18.264Z,26.65
2022-09-28T13:12:25.931Z,26.59
2022-09-28T13:13:43.357Z,26.57
2022-09-28T13:15:03.515Z,26.61
2022-09-28T13:16:23.417Z,26.60
2022-09-28T13:17:26.836Z,26.58
2022-09-28T13:18:40.795Z,26.56
2022-09-28T13:20:13.126Z,26.46
2022-09-28T13:21:20.699Z,26.59
2022-09-28T13:22:34.237Z,26.56
2022-09-28T13:23:39.402Z,26.57
2022-09-28T13:24:44.828Z,26.31
2022-09-28T13:25:57.352Z,26.39
2022-09-28T13:27:05.893Z,25.90
2022-09-28T13:28:07.766Z,26.15
2022-09-28T13:29:13.353Z,26.19
2022-09-28T13:30:19.467Z,26.20
2022-09-28T13:31:33.048Z,26.33
2022-09-28T13:32:38.987Z,26.31
2022-09-28T13:33:44.651Z,25.77
2022-09-28T13:34:49.895Z,26.50
2022-09-28T13:35:51.835Z,26.03
2022-09-28T13:37:11.251Z,26.51
2022-09-28T13:38:16.470Z,26.53
2022-09-28T13:39:44.357Z,26.57
2022-09-28T13:41:13.564Z,26.61
2022-09-28T13:42:30.430Z,26.61
2022-09-28T13:43:47.982Z,26.31
2022-09-28T13:45:09.642Z,26.60
2022-09-28T13:46:41.004Z,26.42
2022-09-28T13:47:52.605Z,26.52
2022-09-28T13:49:07.172Z,26.22
2022-09-28T13:50:39.487Z,26.59
2022-09-28T13:52:03.315Z,26.64
2022-09-28T13:53:15.834Z,26.59
2022-09-28T13:54:50.869Z,26.56
2022-09-28T13:55:58.487Z,26.60
2022-09-28T13:57:44.570Z,26.57
2022-09-28T13:58:55.707Z,26.47
2022-09-28T14:00:02.140Z,26.57
2022-09-28T14:01:26.998Z,26.58
2022-09-28T14:02:49.366Z,26.40
2022-09-28T14:03:57.279Z,26.57
2022-09-28T14:05:26.723Z,26.56
2022-09-28T14:06:31.391Z,26.38
2022-09-28T14:07:36.331Z,26.54
2022-09-28T14:08:45.680Z,26.53
2022-09-28T14:10:24.606Z,26.57
2022-09-28T14:11:32.114Z,26.59
2022-09-28T14:12:33.969Z,26.56
2022-09-28T14:13:58.552Z,26.37
2022-09-28T14:15:01.404Z,26.36
2022-09-28T14:16:18.316Z,26.56
2022-09-28T14:17:23.993Z,26.54
2022-09-28T14:18:32.001Z,26.32
2022-09-28T14:19:34.613Z,26.12
2022-09-28T14:20:37.330Z,26.51
2022-09-28T14:21:53.709Z,26.39
2022-09-28T14:23:15.913Z,26.28
2022-09-28T14:24:32.757Z,26.57
2022-09-28T14:25:44.514Z,26.55
2022-09-28T14:27:01.258Z,26.54
2022-09-28T14:28:43.067Z,26.57
2022-09-28T14:29:45.755Z,26.15
2022-09-28T14:30:51.563Z,26.41
2022-09-28T14:31:53.556Z,26.05
2022-09-28T14:32:58.330Z,26.34
2022-09-28T14:34:02.705Z,26.50
2022-09-28T14:35:20.309Z,26.19
2022-09-28T14:36:56.150Z,26.39
2022-09-28T14:38:31.908Z,26.42
2022-09-28T14:39:55.460Z,26.07
2022-09-28T14:41:11.227Z,26.37
2022-09-28T14:42:23.064Z,26.41
2022-09-28T14:43:26.875Z,26.54
2022-09-28T14:44:28.796Z,26.14
2022-09-28T14:45:35.874Z,26.28
2022-09-28T14:46:45.713Z,26.25
2022-09-28T14:48:13.616Z,26.53
2022-09-28T14:49:19.224Z,26.53
2022-09-28T14:50:21.004Z,26.52
2022-09-28T14:51:30.352Z,26.48
2022-09-28T14:52:52.690Z,26.27
2022-09-28T14:54:07.781Z,26.28
2022-09-28T14:55:15.372Z,26.00
2022-09-28T14:56:19.307Z,26.17
2022-09-28T14:57:24.536Z,26.48
2022-09-28T14:58:29.772Z,26.35
2022-09-28T14:59:36.335Z,26.47
2022-09-28T15:00:39.203Z,26.11
2022-09-28T15:01:43.382Z,26.19
2022-09-28T15:02:49.996Z,26.15
2022-09-28T15:03:56.471Z,25.88
2022-09-28T15:05:15.040Z,25.76
2022-09-28T15:06:19.256Z,26.36
2022-09-28T15:07:43.482Z,26.50
2022-09-28T15:08:45.837Z,26.22
2022-09-28T15:09:52.931Z,26.37
2022-09-28T15:10:58.040Z,26.17
2022-09-28T15:12:06.029Z,26.49
2022-09-28T15:13:21.533Z,26.49
2022-09-28T15:14:23.296Z,26.30
2022-09-28T15:15:30.725Z,26.49
2022-09-28T15:16:32.832Z,26.22
2022-09-28T15:17:40.090Z,26.14
2022-09-28T15:19:15.888Z,26.14
2022-09-28T15:20:26.728Z,26.35
2022-09-28T15:21:35.826Z,26.00
2022-09-28T15:22:44.945Z,26.51
2022-09-28T15:23:48.040Z,26.31
2022-09-28T15:25:02.439Z,26.48
2022-09-28T15:26:08.649Z,25.69
2022-09-28T15:27:19.411Z,26.49
2022-09-28T15:28:24.012Z,26.14
2022-09-28T15:29:31.169Z,26.16
2022-09-28T15:30:35.097Z,26.28
2022-09-28T15:31:36.975Z,25.61